Latest Coastal Weather Observations for Alva Beach

IDQ60701

Issued at 1:45 pm EST Friday 25 April 2014 (issued every 10 minutes, with the page automatically refreshed every 10 minutes)

About coastal observations | Map of coastal stations | Coastal observations for QLD | Marine services | Other Formats
Station Details ID: 033295 Name: ALVA BEACH Lat: -19.46 Lon: 147.48 Height: 7.5 m
Data from the previous 72 hours. | See also: Recent months at Alva Beach
Date/Time
EST
Temp

°C
Wind Pressure Rain
since 9am
mm
Weather Cloud Vis
km
Sea
Height
m
Swell
Dir
 
Speed
knots
Gust
knots
hPa Trend Height
m
Period
s
Dir
25/01:30pm 27.2 E 10 14 1012.2 - 0.0 - - - - - - -
25/01:00pm 28.1 ESE 8 12 1012.5 - 0.0 - - - - - - -
25/12:30pm 26.6 ESE 8 13 1012.8 - 0.0 - - - - - - -
25/12:00pm 26.8 ESE 9 16 1013.2 - 0.0 - - - - - - -
25/11:30am 26.4 ESE 10 17 1013.7 - 0.0 - - - - - - -
25/11:00am 27.0 ESE 9 16 1014.2 - 0.0 - - - - - - -
25/10:30am 26.1 SE 8 13 1014.7 - 0.0 - - - - - - -
25/10:00am 26.2 SE 7 12 1014.8 - 0.0 - - - - - - -
25/09:30am 26.1 SE 7 12 1014.7 - 0.0 - - - - - - -
25/09:00am 25.2 S 5 8 1014.9 - 0.2 - - - - - - -
25/08:30am 24.1 S 5 9 1014.6 - 0.2 - - - - - - -
25/08:00am 23.2 S 5 7 1014.3 - 0.2 - - - - - - -
25/07:30am 23.5 SE 8 13 1014.0 - 0.2 - - - - - - -
25/07:00am 22.0 S 4 6 1013.6 - 0.2 - - - - - - -
25/06:30am 21.8 S 4 6 1013.1 - 0.2 - - - - - - -
25/06:00am 21.9 SSW 4 7 1012.6 - 0.2 - - - - - - -
25/05:30am 22.3 SSE 5 9 1012.0 - 0.2 - - - - - - -
25/05:00am 22.5 SSE 4 11 1011.9 - 0.2 - - - - - - -
25/04:30am 23.3 SE 10 16 1011.7 - 0.2 - - - - - - -
25/04:00am 23.3 SE 10 15 1011.9 - 0.2 - - - - - - -
25/03:30am 22.5 SSE 4 8 1011.6 - 0.2 - - - - - - -
25/03:00am 23.2 SE 9 15 1011.8 - 0.2 - - - - - - -
25/02:30am 23.1 SSE 6 15 1011.9 - 0.2 - - - - - - -
25/02:00am 23.5 SE 11 15 1012.1 - 0.2 - - - - - - -
25/01:30am 23.6 SE 10 17 1012.3 - 0.2 - - - - - - -
25/01:00am 23.3 SSE 5 9 1012.6 - 0.2 - - - - - - -
25/12:30am 23.8 SE 8 14 1013.0 - 0.2 - - - - - - -
25/12:00am 23.9 SE 10 16 1013.3 - 0.2 - - - - - - -
 
Date/Time
EST
Temp

°C
Wind Pressure Rain
since 9am
mm
Weather Cloud Vis
km
Sea
Height
m
Swell
Dir
 
Speed
knots
Gust
knots
hPa Trend Height
m
Period
s
Dir
24/11:30pm 24.1 SE 9 13 1013.5 - 0.2 - - - - - - -
24/11:00pm 24.2 SE 6 12 1013.7 - 0.2 - - - - - - -
24/10:30pm 24.4 ESE 7 12 1013.7 - 0.2 - - - - - - -
24/10:00pm 24.5 ESE 8 13 1013.7 - 0.2 - - - - - - -
24/09:30pm 24.6 ESE 10 16 1013.4 - 0.2 - - - - - - -
24/09:00pm 24.6 ESE 7 13 1013.5 - 0.2 - - - - - - -
24/08:30pm 24.6 ESE 8 13 1013.4 - 0.2 - - - - - - -
24/08:00pm 24.6 ESE 8 13 1013.2 - 0.2 - - - - - - -
24/07:30pm 24.5 ESE 7 11 1012.8 - 0.2 - - - - - - -
24/07:00pm 24.5 ESE 6 10 1012.4 - 0.2 - - - - - - -
24/06:30pm 24.5 ESE 6 10 1012.1 - 0.2 - - - - - - -
24/06:00pm 24.5 E 8 12 1011.9 - 0.2 - - - - - - -
24/05:30pm 24.8 ESE 7 13 1011.6 - 0.2 - - - - - - -
24/05:00pm 24.7 ESE 7 10 1011.3 - 0.2 - - - - - - -
24/04:30pm 24.9 ESE 7 13 1011.1 - 0.2 - - - - - - -
24/04:00pm 25.2 ESE 6 10 1010.8 - 0.2 - - - - - - -
24/03:30pm 24.8 ESE 6 11 1010.7 - 0.2 - - - - - - -
24/03:00pm 25.7 ESE 7 12 1010.8 - 0.2 - - - - - - -
24/02:30pm 25.7 ESE 7 13 1011.0 - 0.2 - - - - - - -
24/02:00pm 26.4 ESE 7 11 1011.1 - 0.2 - - - - - - -
24/01:30pm 26.2 ESE 9 14 1011.5 - 0.2 - - - - - - -
24/01:00pm 26.6 ESE 9 17 1011.8 - 0.2 - - - - - - -
24/12:30pm 25.2 ESE 11 18 1012.3 - 0.2 - - - - - - -
24/12:00pm 25.7 ESE 12 17 1012.5 - 0.2 - - - - - - -
24/11:30am 25.8 ESE 13 18 1012.9 - 0.2 - - - - - - -
24/11:00am 26.3 ESE 13 18 1013.2 - 0.2 - - - - - - -
24/09:30am 25.9 ESE 11 16 1013.9 - 0.0 - - - - - - -
24/09:00am 25.3 E 15 23 1013.6 - 0.6 - - - - - - -
24/08:30am 25.2 E 15 20 1013.5 - 0.6 - - - - - - -
24/08:00am 24.4 ESE 8 15 1013.2 - 0.6 - - - - - - -
24/07:30am 23.9 ESE 10 17 1013.0 - 0.6 - - - - - - -
24/07:00am 23.9 SE 9 15 1012.7 - 0.6 - - - - - - -
24/06:30am 23.7 ESE 8 13 1012.4 - 0.4 - - - - - - -
24/06:00am 23.5 SE 10 15 1012.2 - 0.4 - - - - - - -
24/05:30am 23.6 SE 10 18 1011.8 - 0.4 - - - - - - -
24/05:00am 23.5 SE 8 13 1011.9 - 0.4 - - - - - - -
24/04:30am 23.5 SE 11 19 1011.8 - 0.4 - - - - - - -
24/04:00am 23.6 ESE 12 19 1011.7 - 0.4 - - - - - - -
24/03:30am 23.5 SE 12 18 1011.7 - 0.4 - - - - - - -
24/03:00am 21.9 S 4 6 1011.9 - 0.4 - - - - - - -
24/02:30am 21.9 S 4 6 1012.0 - 0.4 - - - - - - -
24/02:00am 21.5 S 4 7 1012.1 - 0.4 - - - - - - -
24/01:30am 21.4 SSW 5 8 1012.6 - 0.4 - - - - - - -
24/01:00am 21.4 S 5 7 1012.9 - 0.4 - - - - - - -
24/12:30am 21.5 S 5 7 1013.5 - 0.4 - - - - - - -
24/12:00am 21.6 S 4 6 1013.9 - 0.4 - - - - - - -
 
Date/Time
EST
Temp

°C
Wind Pressure Rain
since 9am
mm
Weather Cloud Vis
km
Sea
Height
m
Swell
Dir
 
Speed
knots
Gust
knots
hPa Trend Height
m
Period
s
Dir
23/11:30pm 21.7 SSW 5 7 1013.9 - 0.4 - - - - - - -
23/11:00pm 22.0 SSW 4 6 1014.1 - 0.4 - - - - - - -
23/10:30pm 22.2 SSW 4 6 1014.1 - 0.4 - - - - - - -
23/10:00pm 22.3 S 5 7 1014.2 - 0.4 - - - - - - -
23/09:30pm 22.1 S 5 9 1014.2 - 0.4 - - - - - - -
23/09:00pm 22.1 S 6 10 1014.3 - 0.4 - - - - - - -
23/08:30pm 22.1 S 6 9 1014.2 - 0.4 - - - - - - -
23/08:00pm 22.2 S 6 9 1014.0 - 0.4 - - - - - - -
23/07:30pm 22.4 S 7 11 1013.7 - 0.4 - - - - - - -
23/07:00pm 22.8 SSW 7 11 1013.3 - 0.2 - - - - - - -
23/06:30pm 24.2 SSW 8 14 1012.6 - 0.0 - - - - - - -
23/06:00pm 25.4 ESE 8 13 1012.1 - 0.0 - - - - - - -
23/05:30pm 25.7 ESE 6 11 1011.9 - 0.0 - - - - - - -
23/05:00pm 26.0 ESE 5 7 1011.3 - 0.0 - - - - - - -
23/04:30pm 26.0 SE 7 9 1010.7 - 0.0 - - - - - - -
23/04:00pm 26.8 ESE 7 13 1010.8 - 0.0 - - - - - - -
23/03:30pm 27.4 ESE 7 11 1011.2 - 0.0 - - - - - - -
23/03:00pm 27.8 ESE 9 16 1011.4 - 0.0 - - - - - - -
23/02:30pm 28.1 ESE 8 14 1011.6 - 0.0 - - - - - - -
23/02:00pm 28.3 SE 8 13 1011.8 - 0.0 - - - - - - -
23/01:30pm 27.5 SE 8 14 1012.2 - 0.0 - - - - - - -
23/01:00pm 27.3 SE 8 13 1012.7 - 0.0 - - - - - - -
23/12:30pm 27.5 SE 8 13 1013.2 - 0.0 - - - - - - -
23/12:00pm 27.6 SE 8 14 1013.6 - 0.0 - - - - - - -
23/11:30am 27.5 SE 8 13 1014.1 - 0.0 - - - - - - -
23/11:00am 26.6 SE 9 16 1014.5 - 0.0 - - - - - - -
23/10:30am 26.0 SE 7 12 1015.0 - 0.0 - - - - - - -
23/10:00am 25.8 SE 8 13 1015.1 - 0.0 - - - - - - -
23/09:30am 24.9 SSE 5 8 1015.0 - 0.0 - - - - - - -
23/09:00am 23.6 S 6 10 1014.8 - 0.8 - - - - - - -
23/08:30am 23.2 S 6 10 1014.9 - 0.8 - - - - - - -
23/08:00am 22.2 S 5 9 1014.5 - 0.8 - - - - - - -
23/07:30am 21.4 SSW 5 7 1014.4 - 0.8 - - - - - - -
23/07:00am 20.2 SSW 4 7 1014.2 - 0.8 - - - - - - -
23/06:30am 19.9 SSW 4 6 1013.7 - 0.8 - - - - - - -
23/06:00am 19.8 S 4 5 1013.2 - 0.6 - - - - - - -
23/05:30am 20.1 SSW 4 6 1013.3 - 0.6 - - - - - - -
23/05:00am 20.2 S 4 7 1013.5 - 0.6 - - - - - - -
23/04:30am 20.1 SSW 5 7 1013.6 - 0.6 - - - - - - -
23/04:00am 20.1 S 5 8 1013.5 - 0.6 - - - - - - -
23/03:30am 20.2 SSW 5 8 1013.7 - 0.6 - - - - - - -
23/03:00am 20.5 SSW 5 7 1013.6 - 0.6 - - - - - - -
23/02:30am 21.0 S 4 6 1013.7 - 0.6 - - - - - - -
23/02:00am 21.1 SSE 5 8 1014.0 - 0.6 - - - - - - -
23/01:30am 21.1 S 5 7 1014.4 - 0.4 - - - - - - -
23/01:00am 21.0 SSE 4 8 1014.6 - 0.4 - - - - - - -
23/12:30am 21.4 S 4 6 1015.0 - 0.4 - - - - - - -
23/12:00am 23.0 SSE 5 13 1015.4 - 0.2 - - - - - - -
 
Date/Time
EST
Temp

°C
Wind Pressure Rain
since 9am
mm
Weather Cloud Vis
km
Sea
Height
m
Swell
Dir
 
Speed
knots
Gust
knots
hPa Trend Height
m
Period
s
Dir
22/11:30pm 23.2 SE 8 13 1015.5 - 0.2 - - - - - - -
22/11:00pm 23.4 SE 11 16 1015.7 - 0.2 - - - - - - -
22/10:30pm 23.1 SE 6 9 1015.8 - 0.2 - - - - - - -
22/10:00pm 23.1 SE 5 10 1015.9 - 0.2 - - - - - - -
22/09:30pm 23.2 SE 9 13 1015.7 - 0.2 - - - - - - -
22/09:00pm 23.4 SE 10 15 1015.9 - 0.2 - - - - - - -
22/08:30pm 23.5 SE 9 13 1015.9 - 0.2 - - - - - - -
22/08:00pm 23.3 ESE 7 13 1015.8 - 0.2 - - - - - - -
22/07:30pm 23.4 ESE 8 13 1015.6 - 0.2 - - - - - - -
22/07:00pm 23.2 ESE 7 11 1015.4 - 0.2 - - - - - - -
22/06:30pm 23.0 ESE 8 14 1015.3 - 0.2 - - - - - - -
22/06:00pm 22.9 ESE 7 12 1015.3 - 0.2 - - - - - - -
22/05:30pm 23.3 ESE 7 12 1015.2 - 0.2 - - - - - - -
22/05:00pm 23.3 ESE 7 11 1014.9 - 0.2 - - - - - - -
22/04:30pm 24.0 ESE 7 11 1014.6 - 0.0 - - - - - - -
22/04:00pm 24.4 ESE 7 13 1014.5 - 0.0 - - - - - - -
22/03:30pm 24.9 ESE 7 12 1014.4 - 0.0 - - - - - - -
22/03:00pm 25.1 ESE 8 14 1014.6 - 0.0 - - - - - - -
22/02:30pm 25.1 ESE 8 12 1014.8 - 0.0 - - - - - - -
22/02:00pm 24.4 ESE 8 14 1015.0 - 0.0 - - - - - - -

Other Formats:

Comma delimited format used in spreadsheet applications
http://www.bom.gov.au/fwo/IDQ60701/IDQ60701.95296.axf

JavaScript Object Notation format (JSON) in row-major order
http://www.bom.gov.au/fwo/IDQ60701/IDQ60701.95296.json